sensor_id;sensor_type;location;lat;lon;timestamp;noise_LAeq;noise_LA_min;noise_LA_max;noise_LA01;noise_LA95
4048;Laerm;2038;51.728;6.674;2023-08-17T00:00:45;40.10;32.93;53.64;;
4048;Laerm;2038;51.728;6.674;2023-08-17T00:03:11;38.29;30.89;42.59;;
4048;Laerm;2038;51.728;6.674;2023-08-17T00:05:38;38.15;32.35;41.89;;
4048;Laerm;2038;51.728;6.674;2023-08-17T00:08:05;38.30;31.68;44.54;;
4048;Laerm;2038;51.728;6.674;2023-08-17T00:10:32;41.03;32.93;55.35;;
4048;Laerm;2038;51.728;6.674;2023-08-17T00:12:58;37.93;32.35;42.53;;
4048;Laerm;2038;51.728;6.674;2023-08-17T00:15:24;40.35;30.89;55.75;;
4048;Laerm;2038;51.728;6.674;2023-08-17T00:17:50;38.04;32.35;61.33;;
4048;Laerm;2038;51.728;6.674;2023-08-17T00:20:17;38.27;33.90;48.43;;
4048;Laerm;2038;51.728;6.674;2023-08-17T00:22:43;38.40;33.90;48.03;;
4048;Laerm;2038;51.728;6.674;2023-08-17T00:25:09;38.63;35.66;54.91;;
4048;Laerm;2038;51.728;6.674;2023-08-17T00:27:36;38.36;33.90;45.83;;
4048;Laerm;2038;51.728;6.674;2023-08-17T00:30:02;38.82;33.90;45.51;;
4048;Laerm;2038;51.728;6.674;2023-08-17T00:32:29;39.39;35.04;45.23;;
4048;Laerm;2038;51.728;6.674;2023-08-17T00:34:55;46.62;36.69;65.61;;
4048;Laerm;2038;51.728;6.674;2023-08-17T00:37:21;50.08;41.89;66.06;;
4048;Laerm;2038;51.728;6.674;2023-08-17T00:39:47;50.60;44.97;71.84;;
4048;Laerm;2038;51.728;6.674;2023-08-17T00:42:13;50.63;44.62;69.25;;
4048;Laerm;2038;51.728;6.674;2023-08-17T00:44:40;51.96;47.87;71.20;;
4048;Laerm;2038;51.728;6.674;2023-08-17T00:47:06;54.25;49.23;79.65;;
4048;Laerm;2038;51.728;6.674;2023-08-17T00:49:34;52.47;47.88;75.57;;
4048;Laerm;2038;51.728;6.674;2023-08-17T00:52:02;51.05;46.69;72.73;;
4048;Laerm;2038;51.728;6.674;2023-08-17T00:54:30;49.76;45.20;78.43;;
4048;Laerm;2038;51.728;6.674;2023-08-17T00:56:57;52.50;45.97;75.25;;
4048;Laerm;2038;51.728;6.674;2023-08-17T00:59:25;50.74;45.54;67.14;;
4048;Laerm;2038;51.728;6.674;2023-08-17T01:01:51;49.20;45.33;68.32;;
4048;Laerm;2038;51.728;6.674;2023-08-17T01:04:18;48.74;45.30;70.23;;
4048;Laerm;2038;51.728;6.674;2023-08-17T01:06:44;45.24;41.96;58.56;;
4048;Laerm;2038;51.728;6.674;2023-08-17T01:09:10;42.44;39.21;55.10;;
4048;Laerm;2038;51.728;6.674;2023-08-17T01:11:53;50.23;39.08;67.63;;
4048;Laerm;2038;51.728;6.674;2023-08-17T01:14:58;46.36;38.37;61.42;;
4048;Laerm;2038;51.728;6.674;2023-08-17T01:17:37;41.21;38.47;60.28;;
4048;Laerm;2038;51.728;6.674;2023-08-17T01:20:08;41.73;38.37;55.55;;
4048;Laerm;2038;51.728;6.674;2023-08-17T01:22:45;42.76;39.21;52.11;;
4048;Laerm;2038;51.728;6.674;2023-08-17T01:25:11;41.78;38.18;64.73;;
4048;Laerm;2038;51.728;6.674;2023-08-17T01:27:41;40.63;37.52;50.71;;
4048;Laerm;2038;51.728;6.674;2023-08-17T01:30:10;41.39;38.05;60.31;;
4048;Laerm;2038;51.728;6.674;2023-08-17T01:32:54;41.92;37.52;58.55;;
4048;Laerm;2038;51.728;6.674;2023-08-17T01:35:44;42.44;37.70;56.93;;
4048;Laerm;2038;51.728;6.674;2023-08-17T01:38:21;40.52;37.70;51.36;;
4048;Laerm;2038;51.728;6.674;2023-08-17T01:40:50;53.68;38.05;69.71;;
4048;Laerm;2038;51.728;6.674;2023-08-17T01:43:20;40.91;36.45;57.54;;
4048;Laerm;2038;51.728;6.674;2023-08-17T01:45:46;40.55;37.52;56.60;;
4048;Laerm;2038;51.728;6.674;2023-08-17T01:48:13;40.90;37.70;48.87;;
4048;Laerm;2038;51.728;6.674;2023-08-17T01:50:39;51.66;38.37;68.76;;
4048;Laerm;2038;51.728;6.674;2023-08-17T01:53:05;40.86;36.69;50.87;;
4048;Laerm;2038;51.728;6.674;2023-08-17T01:55:31;50.40;37.12;67.79;;
4048;Laerm;2038;51.728;6.674;2023-08-17T01:57:57;45.53;37.70;59.14;;
4048;Laerm;2038;51.728;6.674;2023-08-17T02:00:24;43.87;36.10;61.62;;
4048;Laerm;2038;51.728;6.674;2023-08-17T02:02:50;45.82;37.32;63.34;;
4048;Laerm;2038;51.728;6.674;2023-08-17T02:05:16;40.43;35.36;53.16;;
4048;Laerm;2038;51.728;6.674;2023-08-17T02:07:42;40.15;36.69;52.62;;
4048;Laerm;2038;51.728;6.674;2023-08-17T02:10:09;40.17;35.36;50.53;;
4048;Laerm;2038;51.728;6.674;2023-08-17T02:12:35;40.77;35.36;55.56;;
4048;Laerm;2038;51.728;6.674;2023-08-17T02:15:01;44.14;35.04;60.56;;
4048;Laerm;2038;51.728;6.674;2023-08-17T02:17:28;39.63;34.69;45.89;;
4048;Laerm;2038;51.728;6.674;2023-08-17T02:19:54;39.78;34.31;49.94;;
4048;Laerm;2038;51.728;6.674;2023-08-17T02:22:20;44.33;34.69;60.30;;
4048;Laerm;2038;51.728;6.674;2023-08-17T02:24:47;40.38;35.04;55.57;;
4048;Laerm;2038;51.728;6.674;2023-08-17T02:27:13;40.68;34.69;59.59;;
4048;Laerm;2038;51.728;6.674;2023-08-17T02:29:40;39.51;34.31;48.03;;
4048;Laerm;2038;51.728;6.674;2023-08-17T02:32:06;49.82;34.31;67.45;;
4048;Laerm;2038;51.728;6.674;2023-08-17T02:34:32;40.17;35.36;49.57;;
4048;Laerm;2038;51.728;6.674;2023-08-17T02:36:58;45.94;35.66;61.22;;
4048;Laerm;2038;51.728;6.674;2023-08-17T02:39:26;39.90;37.32;50.80;;
4048;Laerm;2038;51.728;6.674;2023-08-17T02:41:53;40.23;35.94;48.49;;
4048;Laerm;2038;51.728;6.674;2023-08-17T02:44:20;39.87;35.36;44.49;;
4048;Laerm;2038;51.728;6.674;2023-08-17T02:46:48;47.69;34.69;65.59;;
4048;Laerm;2038;51.728;6.674;2023-08-17T02:49:14;49.60;34.31;66.39;;
4048;Laerm;2038;51.728;6.674;2023-08-17T02:51:40;45.45;36.45;60.98;;
4048;Laerm;2038;51.728;6.674;2023-08-17T02:54:06;44.55;35.36;62.23;;
4048;Laerm;2038;51.728;6.674;2023-08-17T02:56:33;47.70;36.20;64.38;;
4048;Laerm;2038;51.728;6.674;2023-08-17T02:58:59;44.98;35.36;63.66;;
4048;Laerm;2038;51.728;6.674;2023-08-17T03:01:25;48.92;35.36;64.66;;
4048;Laerm;2038;51.728;6.674;2023-08-17T03:03:51;50.08;37.70;66.66;;
4048;Laerm;2038;51.728;6.674;2023-08-17T03:06:18;50.10;34.69;65.09;;
4048;Laerm;2038;51.728;6.674;2023-08-17T03:08:44;51.63;36.45;67.70;;
4048;Laerm;2038;51.728;6.674;2023-08-17T03:11:10;44.66;34.31;61.31;;
4048;Laerm;2038;51.728;6.674;2023-08-17T03:13:36;45.64;35.04;64.46;;
4048;Laerm;2038;51.728;6.674;2023-08-17T03:16:02;44.03;35.36;59.70;;
4048;Laerm;2038;51.728;6.674;2023-08-17T03:18:29;41.22;36.45;47.16;;
4048;Laerm;2038;51.728;6.674;2023-08-17T03:20:55;46.75;35.94;61.25;;
4048;Laerm;2038;51.728;6.674;2023-08-17T03:23:21;41.71;36.20;54.84;;
4048;Laerm;2038;51.728;6.674;2023-08-17T03:25:52;43.75;36.91;60.08;;
4048;Laerm;2038;51.728;6.674;2023-08-17T03:28:19;53.89;37.52;67.47;;
4048;Laerm;2038;51.728;6.674;2023-08-17T03:30:45;45.53;38.67;59.16;;
4048;Laerm;2038;51.728;6.674;2023-08-17T03:33:11;51.26;38.81;67.96;;
4048;Laerm;2038;51.728;6.674;2023-08-17T03:35:37;45.37;38.05;62.02;;
4048;Laerm;2038;51.728;6.674;2023-08-17T03:38:04;53.32;38.37;67.32;;
4048;Laerm;2038;51.728;6.674;2023-08-17T03:40:30;44.29;37.70;58.55;;
4048;Laerm;2038;51.728;6.674;2023-08-17T03:42:56;45.08;37.52;59.68;;
4048;Laerm;2038;51.728;6.674;2023-08-17T03:45:22;48.18;38.81;61.92;;
4048;Laerm;2038;51.728;6.674;2023-08-17T03:47:49;53.06;38.67;66.99;;
4048;Laerm;2038;51.728;6.674;2023-08-17T03:50:15;49.60;37.70;64.92;;
4048;Laerm;2038;51.728;6.674;2023-08-17T03:52:41;47.95;37.12;61.52;;
4048;Laerm;2038;51.728;6.674;2023-08-17T03:55:07;46.25;37.32;60.22;;
4048;Laerm;2038;51.728;6.674;2023-08-17T03:57:34;48.83;37.70;61.16;;
4048;Laerm;2038;51.728;6.674;2023-08-17T04:00:00;46.14;38.67;58.12;;
4048;Laerm;2038;51.728;6.674;2023-08-17T04:02:26;53.39;38.37;65.88;;
4048;Laerm;2038;51.728;6.674;2023-08-17T04:04:53;45.07;37.87;60.35;;
4048;Laerm;2038;51.728;6.674;2023-08-17T04:07:23;50.20;37.32;67.46;;
4048;Laerm;2038;51.728;6.674;2023-08-17T04:09:49;47.71;37.12;62.99;;
4048;Laerm;2038;51.728;6.674;2023-08-17T04:12:16;42.22;37.17;56.79;;
4048;Laerm;2038;51.728;6.674;2023-08-17T04:14:42;51.76;38.21;64.07;;
4048;Laerm;2038;51.728;6.674;2023-08-17T04:17:08;49.47;38.05;63.87;;
4048;Laerm;2038;51.728;6.674;2023-08-17T04:19:34;45.55;37.52;60.01;;
4048;Laerm;2038;51.728;6.674;2023-08-17T04:22:00;54.72;38.52;71.38;;
4048;Laerm;2038;51.728;6.674;2023-08-17T04:24:27;49.56;38.05;60.52;;
4048;Laerm;2038;51.728;6.674;2023-08-17T04:26:53;43.30;37.52;66.42;;
4048;Laerm;2038;51.728;6.674;2023-08-17T04:29:19;50.98;38.52;64.80;;
4048;Laerm;2038;51.728;6.674;2023-08-17T04:31:45;49.53;38.05;65.27;;
4048;Laerm;2038;51.728;6.674;2023-08-17T04:34:12;52.85;37.70;63.62;;
4048;Laerm;2038;51.728;6.674;2023-08-17T04:36:38;50.59;37.70;62.15;;
4048;Laerm;2038;51.728;6.674;2023-08-17T04:39:04;51.32;38.21;64.82;;
4048;Laerm;2038;51.728;6.674;2023-08-17T04:41:31;51.37;38.60;63.48;;
4048;Laerm;2038;51.728;6.674;2023-08-17T04:43:57;48.55;38.37;62.10;;
4048;Laerm;2038;51.728;6.674;2023-08-17T04:46:24;49.95;38.37;62.88;;
4048;Laerm;2038;51.728;6.674;2023-08-17T04:48:50;51.63;38.37;66.66;;
4048;Laerm;2038;51.728;6.674;2023-08-17T04:51:16;54.32;38.81;68.60;;
4048;Laerm;2038;51.728;6.674;2023-08-17T04:53:42;53.19;38.81;69.35;;
4048;Laerm;2038;51.728;6.674;2023-08-17T04:56:08;48.64;38.21;60.62;;
4048;Laerm;2038;51.728;6.674;2023-08-17T04:58:35;50.26;39.08;64.98;;
4048;Laerm;2038;51.728;6.674;2023-08-17T05:01:01;49.54;38.67;64.17;;
4048;Laerm;2038;51.728;6.674;2023-08-17T05:03:27;50.27;38.95;63.26;;
4048;Laerm;2038;51.728;6.674;2023-08-17T05:05:53;45.49;38.52;57.67;;
4048;Laerm;2038;51.728;6.674;2023-08-17T05:08:20;54.06;39.11;70.74;;
4048;Laerm;2038;51.728;6.674;2023-08-17T05:10:48;50.73;38.95;62.63;;
4048;Laerm;2038;51.728;6.674;2023-08-17T05:13:16;49.27;38.52;64.51;;
4048;Laerm;2038;51.728;6.674;2023-08-17T05:15:42;52.69;38.81;64.54;;
4048;Laerm;2038;51.728;6.674;2023-08-17T05:18:08;48.88;39.08;59.46;;
4048;Laerm;2038;51.728;6.674;2023-08-17T05:20:35;51.78;39.08;65.57;;
4048;Laerm;2038;51.728;6.674;2023-08-17T05:23:01;48.26;38.21;59.18;;
4048;Laerm;2038;51.728;6.674;2023-08-17T05:25:27;50.42;38.81;59.67;;
4048;Laerm;2038;51.728;6.674;2023-08-17T05:27:55;51.26;39.21;65.91;;
4048;Laerm;2038;51.728;6.674;2023-08-17T05:30:21;52.98;39.34;65.37;;
4048;Laerm;2038;51.728;6.674;2023-08-17T05:32:48;49.00;38.52;61.52;;
4048;Laerm;2038;51.728;6.674;2023-08-17T05:35:14;54.21;39.21;72.25;;
4048;Laerm;2038;51.728;6.674;2023-08-17T05:37:40;51.51;38.67;62.14;;
4048;Laerm;2038;51.728;6.674;2023-08-17T05:40:07;52.13;39.46;62.85;;
4048;Laerm;2038;51.728;6.674;2023-08-17T05:42:35;50.63;38.67;66.73;;
4048;Laerm;2038;51.728;6.674;2023-08-17T05:45:01;46.55;38.81;60.54;;
4048;Laerm;2038;51.728;6.674;2023-08-17T05:47:27;52.00;39.08;59.80;;
4048;Laerm;2038;51.728;6.674;2023-08-17T05:49:53;51.65;37.88;64.20;;
4048;Laerm;2038;51.728;6.674;2023-08-17T05:52:20;53.71;39.92;66.84;;
4048;Laerm;2038;51.728;6.674;2023-08-17T05:54:46;50.58;39.34;60.32;;
4048;Laerm;2038;51.728;6.674;2023-08-17T05:57:13;53.20;39.34;67.75;;
4048;Laerm;2038;51.728;6.674;2023-08-17T05:59:39;51.29;39.08;66.78;;
4048;Laerm;2038;51.728;6.674;2023-08-17T06:02:05;53.63;38.81;69.47;;
4048;Laerm;2038;51.728;6.674;2023-08-17T06:04:31;49.60;38.67;59.62;;
4048;Laerm;2038;51.728;6.674;2023-08-17T06:06:58;53.17;38.67;68.65;;
4048;Laerm;2038;51.728;6.674;2023-08-17T06:09:24;52.42;38.37;68.15;;
4048;Laerm;2038;51.728;6.674;2023-08-17T06:11:50;46.33;38.52;58.08;;
4048;Laerm;2038;51.728;6.674;2023-08-17T06:14:17;48.85;38.81;60.54;;
4048;Laerm;2038;51.728;6.674;2023-08-17T06:16:43;50.25;38.05;62.21;;
4048;Laerm;2038;51.728;6.674;2023-08-17T06:19:12;53.21;39.46;64.51;;
4048;Laerm;2038;51.728;6.674;2023-08-17T06:21:38;49.53;38.37;60.00;;
4048;Laerm;2038;51.728;6.674;2023-08-17T06:24:05;49.38;37.88;60.12;;
4048;Laerm;2038;51.728;6.674;2023-08-17T06:26:31;46.85;37.70;59.47;;
4048;Laerm;2038;51.728;6.674;2023-08-17T06:28:57;49.61;38.81;61.73;;
4048;Laerm;2038;51.728;6.674;2023-08-17T06:31:24;50.85;38.67;63.43;;
4048;Laerm;2038;51.728;6.674;2023-08-17T06:33:54;48.44;37.88;62.71;;
4048;Laerm;2038;51.728;6.674;2023-08-17T06:36:21;50.20;38.21;66.13;;
4048;Laerm;2038;51.728;6.674;2023-08-17T06:38:47;51.61;39.34;65.52;;
4048;Laerm;2038;51.728;6.674;2023-08-17T06:41:13;48.76;38.32;59.38;;
4048;Laerm;2038;51.728;6.674;2023-08-17T06:43:39;50.33;38.95;59.81;;
4048;Laerm;2038;51.728;6.674;2023-08-17T06:46:06;53.20;39.21;67.14;;
4048;Laerm;2038;51.728;6.674;2023-08-17T06:48:32;48.75;38.52;60.87;;
4048;Laerm;2038;51.728;6.674;2023-08-17T06:50:58;57.47;38.67;72.82;;
4048;Laerm;2038;51.728;6.674;2023-08-17T06:53:24;49.54;38.67;63.97;;
4048;Laerm;2038;51.728;6.674;2023-08-17T06:55:51;45.40;36.91;59.96;;
4048;Laerm;2038;51.728;6.674;2023-08-17T06:58:17;45.78;37.88;58.47;;
4048;Laerm;2038;51.728;6.674;2023-08-17T07:00:43;51.80;38.37;65.70;;
4048;Laerm;2038;51.728;6.674;2023-08-17T07:03:11;47.58;38.05;60.47;;
4048;Laerm;2038;51.728;6.674;2023-08-17T07:05:37;53.84;37.88;67.46;;
4048;Laerm;2038;51.728;6.674;2023-08-17T07:08:04;49.20;38.95;62.66;;
4048;Laerm;2038;51.728;6.674;2023-08-17T07:10:30;50.08;37.70;66.07;;
4048;Laerm;2038;51.728;6.674;2023-08-17T07:12:56;50.90;37.70;65.17;;
4048;Laerm;2038;51.728;6.674;2023-08-17T07:15:23;43.66;37.12;58.85;;
4048;Laerm;2038;51.728;6.674;2023-08-17T07:17:49;50.32;37.32;63.69;;
4048;Laerm;2038;51.728;6.674;2023-08-17T07:20:15;47.54;36.91;61.03;;
4048;Laerm;2038;51.728;6.674;2023-08-17T07:22:41;48.82;38.05;59.79;;
4048;Laerm;2038;51.728;6.674;2023-08-17T07:25:08;51.18;38.05;65.07;;
4048;Laerm;2038;51.728;6.674;2023-08-17T07:27:35;45.40;37.52;62.79;;
4048;Laerm;2038;51.728;6.674;2023-08-17T07:30:01;45.97;37.52;58.13;;
4048;Laerm;2038;51.728;6.674;2023-08-17T07:32:27;46.84;37.12;61.90;;
4048;Laerm;2038;51.728;6.674;2023-08-17T07:34:53;50.37;38.18;64.01;;
4048;Laerm;2038;51.728;6.674;2023-08-17T07:37:20;45.39;38.21;56.54;;
4048;Laerm;2038;51.728;6.674;2023-08-17T07:39:46;50.45;38.81;68.99;;
4048;Laerm;2038;51.728;6.674;2023-08-17T07:42:13;51.62;38.37;66.50;;
4048;Laerm;2038;51.728;6.674;2023-08-17T07:44:39;48.94;38.05;62.99;;
4048;Laerm;2038;51.728;6.674;2023-08-17T07:47:06;49.29;38.21;61.17;;
4048;Laerm;2038;51.728;6.674;2023-08-17T07:49:32;50.16;36.91;59.89;;
4048;Laerm;2038;51.728;6.674;2023-08-17T07:51:58;46.82;37.32;57.25;;
4048;Laerm;2038;51.728;6.674;2023-08-17T07:54:24;48.30;37.70;58.81;;
4048;Laerm;2038;51.728;6.674;2023-08-17T07:56:50;51.32;37.70;68.16;;
4048;Laerm;2038;51.728;6.674;2023-08-17T07:59:17;53.57;39.08;67.76;;
4048;Laerm;2038;51.728;6.674;2023-08-17T08:01:43;50.60;38.52;65.45;;
4048;Laerm;2038;51.728;6.674;2023-08-17T08:04:09;46.54;37.88;59.01;;
4048;Laerm;2038;51.728;6.674;2023-08-17T08:06:35;48.92;37.88;60.76;;
4048;Laerm;2038;51.728;6.674;2023-08-17T08:09:01;53.06;38.67;67.45;;
4048;Laerm;2038;51.728;6.674;2023-08-17T08:11:28;50.77;37.88;63.24;;
4048;Laerm;2038;51.728;6.674;2023-08-17T08:13:57;49.59;36.91;60.85;;
4048;Laerm;2038;51.728;6.674;2023-08-17T08:16:23;51.81;38.37;64.23;;
4048;Laerm;2038;51.728;6.674;2023-08-17T08:18:49;49.95;38.37;60.93;;
4048;Laerm;2038;51.728;6.674;2023-08-17T08:21:15;52.43;37.32;66.77;;
4048;Laerm;2038;51.728;6.674;2023-08-17T08:23:42;48.95;37.52;60.51;;
4048;Laerm;2038;51.728;6.674;2023-08-17T08:26:08;50.55;38.18;63.06;;
4048;Laerm;2038;51.728;6.674;2023-08-17T08:28:34;49.10;37.52;61.70;;
4048;Laerm;2038;51.728;6.674;2023-08-17T08:31:04;47.91;38.37;59.24;;
4048;Laerm;2038;51.728;6.674;2023-08-17T08:33:31;46.76;38.05;61.75;;
4048;Laerm;2038;51.728;6.674;2023-08-17T08:35:57;47.77;36.91;59.43;;
4048;Laerm;2038;51.728;6.674;2023-08-17T08:38:25;51.10;38.52;62.41;;
4048;Laerm;2038;51.728;6.674;2023-08-17T08:40:51;48.27;37.52;62.15;;
4048;Laerm;2038;51.728;6.674;2023-08-17T08:43:18;49.22;38.05;61.28;;
4048;Laerm;2038;51.728;6.674;2023-08-17T08:45:45;53.24;38.52;69.55;;
4048;Laerm;2038;51.728;6.674;2023-08-17T08:48:13;48.39;39.92;58.91;;
4048;Laerm;2038;51.728;6.674;2023-08-17T08:50:40;48.97;38.21;60.94;;
4048;Laerm;2038;51.728;6.674;2023-08-17T08:53:24;49.03;38.67;60.48;;
4048;Laerm;2038;51.728;6.674;2023-08-17T08:55:58;49.59;38.81;60.38;;
4048;Laerm;2038;51.728;6.674;2023-08-17T08:58:29;54.87;38.67;74.81;;
4048;Laerm;2038;51.728;6.674;2023-08-17T09:00:58;47.31;37.35;59.58;;
4048;Laerm;2038;51.728;6.674;2023-08-17T09:03:26;49.37;37.70;60.68;;
4048;Laerm;2038;51.728;6.674;2023-08-17T09:05:52;52.65;38.37;62.93;;
4048;Laerm;2038;51.728;6.674;2023-08-17T09:08:29;45.96;36.69;57.84;;
4048;Laerm;2038;51.728;6.674;2023-08-17T09:10:55;49.01;37.70;62.57;;
4048;Laerm;2038;51.728;6.674;2023-08-17T09:13:22;45.04;38.52;61.56;;
4048;Laerm;2038;51.728;6.674;2023-08-17T09:15:48;48.26;38.37;60.37;;
4048;Laerm;2038;51.728;6.674;2023-08-17T09:18:16;49.39;37.12;65.61;;
4048;Laerm;2038;51.728;6.674;2023-08-17T09:20:46;51.92;37.52;66.72;;
4048;Laerm;2038;51.728;6.674;2023-08-17T09:23:19;50.44;37.88;65.33;;
4048;Laerm;2038;51.728;6.674;2023-08-17T09:25:46;52.36;37.70;66.23;;
4048;Laerm;2038;51.728;6.674;2023-08-17T09:28:16;45.33;37.88;58.71;;
4048;Laerm;2038;51.728;6.674;2023-08-17T09:31:02;44.48;38.21;56.56;;
4048;Laerm;2038;51.728;6.674;2023-08-17T09:33:32;50.29;37.70;65.26;;
4048;Laerm;2038;51.728;6.674;2023-08-17T09:36:00;47.59;38.05;59.35;;
4048;Laerm;2038;51.728;6.674;2023-08-17T09:38:27;49.26;38.67;59.58;;
4048;Laerm;2038;51.728;6.674;2023-08-17T09:40:57;51.74;38.37;64.05;;
4048;Laerm;2038;51.728;6.674;2023-08-17T09:43:24;48.33;38.52;60.01;;
4048;Laerm;2038;51.728;6.674;2023-08-17T09:45:55;54.58;39.08;64.63;;
4048;Laerm;2038;51.728;6.674;2023-08-17T09:48:21;54.65;38.21;68.98;;
4048;Laerm;2038;51.728;6.674;2023-08-17T09:50:48;49.65;38.81;61.24;;
4048;Laerm;2038;51.728;6.674;2023-08-17T09:53:17;51.30;38.87;61.97;;
4048;Laerm;2038;51.728;6.674;2023-08-17T09:55:45;48.88;38.05;60.41;;
4048;Laerm;2038;51.728;6.674;2023-08-17T09:58:12;46.50;38.21;59.15;;
4048;Laerm;2038;51.728;6.674;2023-08-17T10:00:51;52.21;38.05;68.66;;
4048;Laerm;2038;51.728;6.674;2023-08-17T10:03:19;52.22;39.92;65.28;;
4048;Laerm;2038;51.728;6.674;2023-08-17T10:05:59;49.91;36.98;67.86;;
4048;Laerm;2038;51.728;6.674;2023-08-17T10:08:30;56.10;38.81;74.43;;
4048;Laerm;2038;51.728;6.674;2023-08-17T10:10:57;53.83;37.88;66.88;;
4048;Laerm;2038;51.728;6.674;2023-08-17T10:13:28;49.33;37.70;60.18;;
4048;Laerm;2038;51.728;6.674;2023-08-17T10:18:54;52.11;38.21;67.97;;
4048;Laerm;2038;51.728;6.674;2023-08-17T10:21:37;50.52;38.21;63.61;;
4048;Laerm;2038;51.728;6.674;2023-08-17T10:24:07;48.76;38.52;60.73;;
4048;Laerm;2038;51.728;6.674;2023-08-17T10:26:34;50.80;37.52;62.58;;
4048;Laerm;2038;51.728;6.674;2023-08-17T10:29:02;54.58;38.21;69.61;;
4048;Laerm;2038;51.728;6.674;2023-08-17T10:31:30;48.06;37.53;59.55;;
4048;Laerm;2038;51.728;6.674;2023-08-17T10:33:57;52.36;37.52;66.35;;
4048;Laerm;2038;51.728;6.674;2023-08-17T10:36:25;51.23;37.52;64.42;;
4048;Laerm;2038;51.728;6.674;2023-08-17T10:39:24;49.36;37.32;61.81;;
4048;Laerm;2038;51.728;6.674;2023-08-17T10:41:52;50.46;38.37;62.63;;
4048;Laerm;2038;51.728;6.674;2023-08-17T10:44:45;51.79;37.12;63.22;;
4048;Laerm;2038;51.728;6.674;2023-08-17T10:47:32;51.96;37.52;66.64;;
4048;Laerm;2038;51.728;6.674;2023-08-17T10:50:05;44.89;36.91;58.11;;
4048;Laerm;2038;51.728;6.674;2023-08-17T10:52:35;54.29;37.32;68.65;;
4048;Laerm;2038;51.728;6.674;2023-08-17T10:55:06;51.31;39.58;63.16;;
4048;Laerm;2038;51.728;6.674;2023-08-17T10:57:38;49.78;37.12;62.81;;
4048;Laerm;2038;51.728;6.674;2023-08-17T11:00:24;48.74;37.52;60.26;;
4048;Laerm;2038;51.728;6.674;2023-08-17T11:02:58;48.21;36.91;60.16;;
4048;Laerm;2038;51.728;6.674;2023-08-17T11:05:49;53.59;37.70;70.63;;
4048;Laerm;2038;51.728;6.674;2023-08-17T11:11:14;53.17;38.67;68.92;;
4048;Laerm;2038;51.728;6.674;2023-08-17T11:13:45;50.92;38.37;64.31;;
4048;Laerm;2038;51.728;6.674;2023-08-17T11:16:15;47.87;37.88;59.08;;
4048;Laerm;2038;51.728;6.674;2023-08-17T11:18:41;48.64;37.88;62.79;;
4048;Laerm;2038;51.728;6.674;2023-08-17T11:21:07;51.57;37.88;66.65;;
4048;Laerm;2038;51.728;6.674;2023-08-17T11:23:37;53.37;38.95;66.80;;
4048;Laerm;2038;51.728;6.674;2023-08-17T11:26:04;58.31;39.21;72.49;;
4048;Laerm;2038;51.728;6.674;2023-08-17T11:28:32;53.17;38.05;67.71;;
4048;Laerm;2038;51.728;6.674;2023-08-17T11:31:05;49.64;38.37;60.40;;
4048;Laerm;2038;51.728;6.674;2023-08-17T11:33:32;46.81;37.52;62.15;;
4048;Laerm;2038;51.728;6.674;2023-08-17T11:36:04;51.56;38.05;66.89;;
4048;Laerm;2038;51.728;6.674;2023-08-17T11:38:38;52.23;38.05;65.64;;
4048;Laerm;2038;51.728;6.674;2023-08-17T11:41:05;51.12;38.99;61.60;;
4048;Laerm;2038;51.728;6.674;2023-08-17T11:43:33;52.75;38.05;68.65;;
4048;Laerm;2038;51.728;6.674;2023-08-17T11:46:01;51.01;38.21;63.11;;
4048;Laerm;2038;51.728;6.674;2023-08-17T11:48:28;50.36;38.05;61.54;;
4048;Laerm;2038;51.728;6.674;2023-08-17T11:50:54;51.47;38.05;70.22;;
4048;Laerm;2038;51.728;6.674;2023-08-17T11:53:21;46.43;37.12;59.20;;
4048;Laerm;2038;51.728;6.674;2023-08-17T11:55:48;48.74;37.52;57.40;;
4048;Laerm;2038;51.728;6.674;2023-08-17T11:58:15;52.54;36.91;70.11;;
4048;Laerm;2038;51.728;6.674;2023-08-17T12:00:43;50.23;38.05;62.11;;
4048;Laerm;2038;51.728;6.674;2023-08-17T12:03:18;49.62;38.52;64.90;;
4048;Laerm;2038;51.728;6.674;2023-08-17T12:05:45;50.28;39.70;64.92;;
4048;Laerm;2038;51.728;6.674;2023-08-17T12:08:13;51.07;39.81;65.65;;
4048;Laerm;2038;51.728;6.674;2023-08-17T12:10:45;48.65;37.88;60.90;;
4048;Laerm;2038;51.728;6.674;2023-08-17T12:13:12;51.44;38.21;69.36;;
4048;Laerm;2038;51.728;6.674;2023-08-17T12:15:39;52.74;37.88;70.91;;
4048;Laerm;2038;51.728;6.674;2023-08-17T12:18:06;51.31;37.88;63.73;;
4048;Laerm;2038;51.728;6.674;2023-08-17T12:20:35;50.53;37.87;65.44;;
4048;Laerm;2038;51.728;6.674;2023-08-17T12:23:02;54.06;40.23;69.85;;
4048;Laerm;2038;51.728;6.674;2023-08-17T12:25:29;51.28;40.62;64.19;;
4048;Laerm;2038;51.728;6.674;2023-08-17T12:27:59;53.41;40.98;72.16;;
4048;Laerm;2038;51.728;6.674;2023-08-17T12:30:29;50.79;40.23;61.12;;
4048;Laerm;2038;51.728;6.674;2023-08-17T12:32:59;48.88;40.03;60.56;;
4048;Laerm;2038;51.728;6.674;2023-08-17T12:35:26;56.24;38.32;69.01;;
4048;Laerm;2038;51.728;6.674;2023-08-17T12:37:53;50.89;38.37;62.20;;
4048;Laerm;2038;51.728;6.674;2023-08-17T12:40:21;50.46;37.70;62.78;;
4048;Laerm;2038;51.728;6.674;2023-08-17T12:42:48;50.89;38.05;63.76;;
4048;Laerm;2038;51.728;6.674;2023-08-17T12:45:15;51.96;38.37;60.73;;
4048;Laerm;2038;51.728;6.674;2023-08-17T12:47:42;53.53;37.32;68.78;;
4048;Laerm;2038;51.728;6.674;2023-08-17T12:50:09;51.69;39.92;60.33;;
4048;Laerm;2038;51.728;6.674;2023-08-17T12:52:35;54.86;37.70;70.01;;
4048;Laerm;2038;51.728;6.674;2023-08-17T12:55:01;51.32;38.67;65.15;;
4048;Laerm;2038;51.728;6.674;2023-08-17T12:57:28;51.28;39.58;63.93;;
4048;Laerm;2038;51.728;6.674;2023-08-17T12:59:54;47.45;37.88;57.74;;
4048;Laerm;2038;51.728;6.674;2023-08-17T13:02:21;48.57;39.58;59.71;;
4048;Laerm;2038;51.728;6.674;2023-08-17T13:04:47;51.16;38.67;62.66;;
4048;Laerm;2038;51.728;6.674;2023-08-17T13:07:13;50.32;38.37;61.96;;
4048;Laerm;2038;51.728;6.674;2023-08-17T13:09:40;50.71;38.21;59.63;;
4048;Laerm;2038;51.728;6.674;2023-08-17T13:12:06;46.66;37.32;60.91;;
4048;Laerm;2038;51.728;6.674;2023-08-17T13:14:33;55.39;38.81;71.97;;
4048;Laerm;2038;51.728;6.674;2023-08-17T13:16:59;54.39;38.05;67.79;;
4048;Laerm;2038;51.728;6.674;2023-08-17T13:19:25;50.90;37.32;64.69;;
4048;Laerm;2038;51.728;6.674;2023-08-17T13:21:51;52.07;39.92;64.55;;
4048;Laerm;2038;51.728;6.674;2023-08-17T13:24:18;50.82;38.37;61.56;;
4048;Laerm;2038;51.728;6.674;2023-08-17T13:26:45;50.13;38.32;62.06;;
4048;Laerm;2038;51.728;6.674;2023-08-17T13:29:11;52.01;37.52;65.86;;
4048;Laerm;2038;51.728;6.674;2023-08-17T13:31:37;51.72;38.05;61.31;;
4048;Laerm;2038;51.728;6.674;2023-08-17T13:34:03;53.84;37.70;69.09;;
4048;Laerm;2038;51.728;6.674;2023-08-17T13:36:30;50.68;38.05;61.78;;
4048;Laerm;2038;51.728;6.674;2023-08-17T13:38:56;50.39;38.52;64.09;;
4048;Laerm;2038;51.728;6.674;2023-08-17T13:41:22;52.30;37.52;66.16;;
4048;Laerm;2038;51.728;6.674;2023-08-17T13:43:51;48.56;38.05;60.16;;
4048;Laerm;2038;51.728;6.674;2023-08-17T13:46:17;48.32;37.70;61.42;;
4048;Laerm;2038;51.728;6.674;2023-08-17T13:48:43;47.18;37.88;58.63;;
4048;Laerm;2038;51.728;6.674;2023-08-17T13:51:09;51.03;38.67;64.90;;
4048;Laerm;2038;51.728;6.674;2023-08-17T13:53:37;49.79;38.05;61.92;;
4048;Laerm;2038;51.728;6.674;2023-08-17T13:56:03;51.47;38.81;63.92;;
4048;Laerm;2038;51.728;6.674;2023-08-17T13:58:29;52.92;38.05;69.15;;
4048;Laerm;2038;51.728;6.674;2023-08-17T14:00:55;48.69;38.05;61.58;;
4048;Laerm;2038;51.728;6.674;2023-08-17T14:03:22;51.50;36.91;65.60;;
4048;Laerm;2038;51.728;6.674;2023-08-17T14:05:48;47.96;36.91;60.12;;
4048;Laerm;2038;51.728;6.674;2023-08-17T14:08:15;50.33;38.05;61.24;;
4048;Laerm;2038;51.728;6.674;2023-08-17T14:10:41;50.02;37.32;61.29;;
4048;Laerm;2038;51.728;6.674;2023-08-17T14:13:07;51.82;39.70;63.04;;
4048;Laerm;2038;51.728;6.674;2023-08-17T14:15:33;51.32;39.46;61.56;;
4048;Laerm;2038;51.728;6.674;2023-08-17T14:18:00;51.27;39.70;60.76;;